createdAt,value
2018-01-13T00:01:17.208Z,1.43
2018-01-13T00:03:57.785Z,1.37
2018-01-13T00:06:27.377Z,2.60
2018-01-13T00:08:57.265Z,1.00
2018-01-13T00:11:33.043Z,1.83
2018-01-13T00:14:02.605Z,1.80
2018-01-13T00:16:32.825Z,1.73
2018-01-13T00:19:02.699Z,1.77
2018-01-13T00:21:32.262Z,1.33
2018-01-13T00:24:01.810Z,2.50
2018-01-13T00:26:31.326Z,1.73
2018-01-13T00:29:00.854Z,2.33
2018-01-13T00:31:30.463Z,1.30
2018-01-13T00:34:00.036Z,1.20
2018-01-13T00:36:44.009Z,1.10
2018-01-13T00:39:13.905Z,1.10
2018-01-13T00:41:43.454Z,1.00
2018-01-13T00:44:13.041Z,1.43
2018-01-13T00:46:42.866Z,1.73
2018-01-13T00:49:12.424Z,1.10
2018-01-13T00:51:42.004Z,2.07
2018-01-13T00:54:11.575Z,2.23
2018-01-13T00:56:41.133Z,1.00
2018-01-13T00:59:10.681Z,1.80
2018-01-13T01:01:40.225Z,2.60
2018-01-13T01:04:09.747Z,1.20
2018-01-13T01:06:39.297Z,1.23
2018-01-13T01:09:08.865Z,1.23
2018-01-13T01:11:38.450Z,0.90
2018-01-13T01:14:08.680Z,2.93
2018-01-13T01:16:38.236Z,1.10
2018-01-13T01:19:07.788Z,2.13
2018-01-13T01:21:42.135Z,2.50
2018-01-13T01:24:12.618Z,1.40
2018-01-13T01:26:42.142Z,2.60
2018-01-13T01:29:17.722Z,1.67
2018-01-13T01:31:48.340Z,3.20
2018-01-13T01:34:24.527Z,1.30
2018-01-13T01:36:54.074Z,1.33
2018-01-13T01:39:23.652Z,1.43
2018-01-13T01:41:53.173Z,9.10
2018-01-13T01:44:22.742Z,2.03
2018-01-13T01:46:59.342Z,1.17
2018-01-13T01:49:28.842Z,1.53
2018-01-13T01:51:58.942Z,1.30
2018-01-13T01:54:28.502Z,1.60
2018-01-13T01:56:58.050Z,1.20
2018-01-13T01:59:27.619Z,1.40
2018-01-13T02:01:58.823Z,1.53
2018-01-13T02:04:28.427Z,1.50
2018-01-13T02:06:57.975Z,1.33
2018-01-13T02:09:27.531Z,1.30
2018-01-13T02:12:00.821Z,1.40
2018-01-13T02:14:30.432Z,1.70
2018-01-13T02:16:59.994Z,1.83
2018-01-13T02:19:29.523Z,1.33
2018-01-13T02:21:59.107Z,2.63
2018-01-13T02:24:28.727Z,2.30
2018-01-13T02:26:58.697Z,1.53
2018-01-13T02:29:28.269Z,2.10
2018-01-13T02:31:57.795Z,1.63
2018-01-13T02:34:27.475Z,1.73
2018-01-13T02:37:04.252Z,1.50
2018-01-13T02:39:33.832Z,1.30
2018-01-13T02:42:10.213Z,1.50
2018-01-13T02:44:41.006Z,1.40
2018-01-13T02:47:27.306Z,1.63
2018-01-13T02:49:56.878Z,2.70
2018-01-13T02:52:26.798Z,1.47
2018-01-13T02:55:02.634Z,1.30
2018-01-13T02:57:32.360Z,1.53
2018-01-13T03:00:08.069Z,2.50
2018-01-13T03:02:37.698Z,1.30
2018-01-13T03:05:07.284Z,1.20
2018-01-13T03:07:36.896Z,1.50
2018-01-13T03:10:19.070Z,1.80
2018-01-13T03:12:48.716Z,1.70
2018-01-13T03:15:18.342Z,1.60
2018-01-13T03:17:47.988Z,1.30
2018-01-13T03:20:17.530Z,1.40
2018-01-13T03:22:47.080Z,1.40
2018-01-13T03:25:16.767Z,2.00
2018-01-13T03:27:46.343Z,1.60
2018-01-13T03:30:17.695Z,1.40
2018-01-13T03:32:47.438Z,1.60
2018-01-13T03:35:17.122Z,1.40
2018-01-13T03:37:46.658Z,1.50
2018-01-13T03:40:16.282Z,1.73
2018-01-13T03:42:45.880Z,2.73
2018-01-13T03:45:15.469Z,1.43
2018-01-13T03:47:45.825Z,1.93
2018-01-13T03:50:15.322Z,2.20
2018-01-13T03:52:44.862Z,1.50
2018-01-13T03:55:14.482Z,1.33
2018-01-13T03:57:44.044Z,1.77
2018-01-13T04:00:33.058Z,1.40
2018-01-13T04:03:02.589Z,1.53
2018-01-13T04:05:32.177Z,1.20
2018-01-13T04:08:01.709Z,2.00
2018-01-13T04:10:31.247Z,3.87
2018-01-13T04:13:00.791Z,2.10
2018-01-13T04:15:30.391Z,1.50
2018-01-13T04:17:59.962Z,3.53
2018-01-13T04:20:29.481Z,1.80
2018-01-13T04:22:58.988Z,1.60
2018-01-13T04:25:28.550Z,1.30
2018-01-13T04:27:58.067Z,2.20
2018-01-13T04:30:27.621Z,1.40
2018-01-13T04:32:57.330Z,3.07
2018-01-13T04:35:26.851Z,10.27
2018-01-13T04:37:56.407Z,2.57
2018-01-13T04:40:25.929Z,2.20
2018-01-13T04:42:55.445Z,1.53
2018-01-13T04:45:26.066Z,1.47
2018-01-13T04:47:55.625Z,5.63
2018-01-13T04:50:25.190Z,1.67
2018-01-13T04:52:54.696Z,5.07
2018-01-13T04:55:24.253Z,8.17
2018-01-13T04:57:53.804Z,4.23
2018-01-13T05:00:23.374Z,7.03
2018-01-13T05:02:52.934Z,4.40
2018-01-13T05:05:23.322Z,2.20
2018-01-13T05:07:54.159Z,4.43
2018-01-13T05:10:26.990Z,6.00
2018-01-13T05:12:56.543Z,7.73
2018-01-13T05:15:26.103Z,23.90
2018-01-13T05:17:55.630Z,9.33
2018-01-13T05:20:25.216Z,3.30
2018-01-13T05:23:00.814Z,6.93
2018-01-13T05:25:30.362Z,3.40
2018-01-13T05:27:59.972Z,51.60
2018-01-13T05:30:29.501Z,65.77
2018-01-13T05:32:59.085Z,86.03
2018-01-13T05:35:28.631Z,91.37
2018-01-13T05:37:58.194Z,53.07
2018-01-13T05:40:27.841Z,66.87
2018-01-13T05:42:57.336Z,50.37
2018-01-13T05:45:27.743Z,55.17
2018-01-13T05:47:57.562Z,22.67
2018-01-13T05:50:27.109Z,17.63
2018-01-13T05:52:56.928Z,29.67
2018-01-13T05:55:26.923Z,8.33
2018-01-13T05:58:02.506Z,23.77
2018-01-13T06:00:32.099Z,23.87
2018-01-13T06:03:02.151Z,5.43
2018-01-13T06:05:31.671Z,15.30
2018-01-13T06:08:01.220Z,5.97
2018-01-13T06:10:31.713Z,4.50
2018-01-13T06:13:01.271Z,9.43
2018-01-13T06:15:31.149Z,2.10
2018-01-13T06:18:20.113Z,12.50
2018-01-13T06:20:50.875Z,11.10
2018-01-13T06:23:20.491Z,18.77
2018-01-13T06:25:55.373Z,5.60
2018-01-13T06:28:24.966Z,9.67
2018-01-13T06:30:55.065Z,16.83
2018-01-13T06:33:27.173Z,5.43
2018-01-13T06:35:56.758Z,5.90
2018-01-13T06:38:26.842Z,8.23
2018-01-13T06:40:56.347Z,6.10
2018-01-13T06:43:25.918Z,2.70
2018-01-13T06:46:03.083Z,16.10
2018-01-13T06:48:32.650Z,5.73
2018-01-13T06:51:02.210Z,8.53
2018-01-13T06:53:32.110Z,16.83
2018-01-13T06:56:01.913Z,44.07
2018-01-13T06:58:31.486Z,7.70
2018-01-13T07:01:01.082Z,25.33
2018-01-13T07:03:30.645Z,9.30
2018-01-13T07:06:00.466Z,17.13
2018-01-13T07:08:30.012Z,8.93
2018-01-13T07:10:59.800Z,4.30
2018-01-13T07:16:05.422Z,15.50
2018-01-13T07:18:35.354Z,10.57
2018-01-13T07:21:05.379Z,16.43
2018-01-13T07:23:47.313Z,43.23
2018-01-13T07:26:16.850Z,38.53
2018-01-13T07:28:46.378Z,27.57
2018-01-13T07:31:15.899Z,38.90
2018-01-13T07:33:45.877Z,54.10
2018-01-13T07:36:18.407Z,10.30
2018-01-13T07:38:47.925Z,38.50
2018-01-13T07:41:17.479Z,34.80
2018-01-13T07:43:47.013Z,60.50
2018-01-13T07:46:16.584Z,74.23
2018-01-13T07:48:46.915Z,36.33
2018-01-13T07:51:16.418Z,31.60
2018-01-13T07:53:45.922Z,16.50
2018-01-13T07:56:15.481Z,38.67
2018-01-13T07:58:44.986Z,23.17
2018-01-13T08:01:14.654Z,38.23
2018-01-13T08:03:44.666Z,55.83
2018-01-13T08:06:14.258Z,41.27
2018-01-13T08:08:43.903Z,35.07
2018-01-13T08:11:25.909Z,26.43
2018-01-13T08:13:55.469Z,16.43
2018-01-13T08:16:25.042Z,26.60
2018-01-13T08:18:54.597Z,7.50
2018-01-13T08:21:24.143Z,33.50
2018-01-13T08:23:53.790Z,50.60
2018-01-13T08:26:23.334Z,36.43
2018-01-13T08:28:52.895Z,38.77
2018-01-13T08:31:22.692Z,29.53
2018-01-13T08:33:52.222Z,20.87
2018-01-13T08:36:34.733Z,18.00
2018-01-13T08:39:04.854Z,22.53
2018-01-13T08:41:36.175Z,18.63
2018-01-13T08:44:05.718Z,26.30
2018-01-13T08:46:48.998Z,23.67
2018-01-13T08:49:23.730Z,13.33
2018-01-13T08:51:53.739Z,30.73
2018-01-13T08:54:23.398Z,11.00
2018-01-13T08:56:52.918Z,37.90
2018-01-13T08:59:22.534Z,25.73
2018-01-13T09:02:01.517Z,33.30
2018-01-13T09:04:31.107Z,18.60
2018-01-13T09:07:03.509Z,23.47
2018-01-13T09:09:33.234Z,15.53
2018-01-13T09:12:02.777Z,6.90
2018-01-13T09:14:38.411Z,3.97
2018-01-13T09:17:07.982Z,4.47
2018-01-13T09:19:37.803Z,3.97
2018-01-13T09:22:08.019Z,6.30
2018-01-13T09:24:38.127Z,4.20
2018-01-13T09:27:15.304Z,4.07
2018-01-13T09:29:44.876Z,21.13
2018-01-13T09:32:14.378Z,6.97
2018-01-13T09:34:44.966Z,6.80
2018-01-13T09:37:14.502Z,5.90
2018-01-13T09:39:44.025Z,18.90
2018-01-13T09:42:13.659Z,18.00
2018-01-13T09:44:43.191Z,21.97
2018-01-13T09:47:13.000Z,31.43
2018-01-13T09:49:42.596Z,20.93
2018-01-13T09:52:12.698Z,20.27
2018-01-13T09:54:43.183Z,19.67
2018-01-13T09:57:13.455Z,21.37
2018-01-13T09:59:43.447Z,18.93
2018-01-13T10:02:13.042Z,16.70
2018-01-13T10:04:55.478Z,21.47
2018-01-13T10:07:25.051Z,17.20
2018-01-13T10:10:01.002Z,22.53
2018-01-13T10:12:32.333Z,13.27
2018-01-13T10:15:02.263Z,23.10
2018-01-13T10:17:31.791Z,25.30
2018-01-13T10:20:01.340Z,16.37
2018-01-13T10:22:30.923Z,18.20
2018-01-13T10:25:01.469Z,19.93
2018-01-13T10:27:31.873Z,13.97
2018-01-13T10:30:01.573Z,14.67
2018-01-13T10:32:31.487Z,16.87
2018-01-13T10:35:01.670Z,13.63
2018-01-13T10:37:31.216Z,12.90
2018-01-13T10:40:00.715Z,14.73
2018-01-13T10:42:30.250Z,18.07
2018-01-13T10:45:05.888Z,13.30
2018-01-13T10:47:35.682Z,12.73
2018-01-13T10:50:05.897Z,16.43
2018-01-13T10:52:35.478Z,16.47
2018-01-13T10:55:05.837Z,18.53
2018-01-13T10:57:35.410Z,16.50
2018-01-13T11:00:05.117Z,16.50
2018-01-13T11:02:34.650Z,15.40
2018-01-13T11:05:04.540Z,7.80
2018-01-13T11:07:34.099Z,10.60
2018-01-13T11:10:03.720Z,18.50
2018-01-13T11:12:33.217Z,13.13
2018-01-13T11:15:03.223Z,13.70
2018-01-13T11:17:32.880Z,14.37
2018-01-13T11:20:08.811Z,11.10
2018-01-13T11:22:38.529Z,22.67
2018-01-13T11:25:08.417Z,10.17
2018-01-13T11:27:38.140Z,8.00
2018-01-13T11:30:07.858Z,8.47
2018-01-13T11:32:37.404Z,19.17
2018-01-13T11:35:06.964Z,16.63
2018-01-13T11:37:36.699Z,15.00
2018-01-13T11:40:06.846Z,13.50
2018-01-13T11:42:37.059Z,11.33
2018-01-13T11:45:07.061Z,9.40
2018-01-13T11:47:36.568Z,11.80
2018-01-13T11:50:07.583Z,11.60
2018-01-13T11:52:37.227Z,7.50
2018-01-13T11:55:07.241Z,8.20
2018-01-13T11:57:36.730Z,11.97
2018-01-13T12:00:13.613Z,12.40
2018-01-13T12:02:43.108Z,12.87
2018-01-13T12:05:12.597Z,9.30
2018-01-13T12:07:42.140Z,11.33
2018-01-13T12:10:11.806Z,9.70
2018-01-13T12:12:42.741Z,11.33
2018-01-13T12:15:12.302Z,8.43
2018-01-13T12:17:41.817Z,10.00
2018-01-13T12:20:11.385Z,10.67
2018-01-13T12:22:40.926Z,13.07
2018-01-13T12:25:10.481Z,8.00
2018-01-13T12:27:40.043Z,7.30
2018-01-13T12:30:09.679Z,10.60
2018-01-13T12:32:39.248Z,10.70
2018-01-13T12:35:08.777Z,8.60
2018-01-13T12:37:42.821Z,22.90
2018-01-13T12:40:12.378Z,14.17
2018-01-13T12:42:42.061Z,7.13
2018-01-13T12:45:11.898Z,17.10
2018-01-13T12:47:49.406Z,10.27
2018-01-13T12:50:20.861Z,10.50
2018-01-13T12:52:50.453Z,10.73
2018-01-13T12:55:20.016Z,7.90
2018-01-13T12:57:49.751Z,8.67
2018-01-13T13:00:19.290Z,8.33
2018-01-13T13:02:48.998Z,10.30
2018-01-13T13:05:19.782Z,14.50
2018-01-13T13:07:49.301Z,5.73
2018-01-13T13:10:18.791Z,5.87
2018-01-13T13:12:49.825Z,11.47
2018-01-13T13:15:19.395Z,9.10
2018-01-13T13:17:48.952Z,8.77
2018-01-13T13:20:19.991Z,6.93
2018-01-13T13:22:49.539Z,5.50
2018-01-13T13:25:19.504Z,11.90
2018-01-13T13:27:49.054Z,6.83
2018-01-13T13:30:18.656Z,8.83
2018-01-13T13:32:48.452Z,7.50
2018-01-13T13:35:19.195Z,5.97
2018-01-13T13:37:48.792Z,6.83
2018-01-13T13:40:18.648Z,7.50
2018-01-13T13:42:54.394Z,7.47
2018-01-13T13:45:24.187Z,8.30
2018-01-13T13:47:55.038Z,6.13
2018-01-13T13:50:24.550Z,8.43
2018-01-13T13:52:54.105Z,7.47
2018-01-13T13:55:36.750Z,6.27
2018-01-13T13:58:06.874Z,7.23
2018-01-13T14:00:38.116Z,5.73
2018-01-13T14:03:10.022Z,6.73
2018-01-13T14:05:40.509Z,10.50
2018-01-13T14:08:17.440Z,10.50
2018-01-13T14:10:48.078Z,16.67
2018-01-13T14:13:24.474Z,6.97
2018-01-13T14:16:09.030Z,5.70
2018-01-13T14:18:51.049Z,6.17
2018-01-13T14:21:25.553Z,6.00
2018-01-13T14:24:00.709Z,3.13
2018-01-13T14:26:36.116Z,4.97
2018-01-13T14:29:07.597Z,5.10
2018-01-13T14:31:37.565Z,10.83
2018-01-13T14:34:07.126Z,2.63
2018-01-13T14:36:36.637Z,5.43
2018-01-13T14:39:12.481Z,9.57
2018-01-13T14:41:42.043Z,7.80
2018-01-13T14:44:12.081Z,6.30
2018-01-13T14:46:55.054Z,8.60
2018-01-13T14:49:24.547Z,13.03
2018-01-13T14:51:54.665Z,6.97
2018-01-13T14:54:24.338Z,3.53
2018-01-13T14:56:53.854Z,5.40
2018-01-13T14:59:23.395Z,12.00
2018-01-13T15:01:53.043Z,16.80
2018-01-13T15:04:22.589Z,13.37
2018-01-13T15:06:52.154Z,8.13
2018-01-13T15:09:22.790Z,7.67
2018-01-13T15:11:52.336Z,6.20
2018-01-13T15:14:21.905Z,7.43
2018-01-13T15:16:51.450Z,4.43
2018-01-13T15:19:21.041Z,5.60
2018-01-13T15:21:50.577Z,9.60
2018-01-13T15:24:23.288Z,3.37
2018-01-13T15:26:59.914Z,9.37
2018-01-13T15:29:29.406Z,10.07
2018-01-13T15:32:24.302Z,8.40
2018-01-13T15:34:56.804Z,9.20
2018-01-13T15:37:26.346Z,6.50
2018-01-13T15:39:56.058Z,4.27
2018-01-13T15:42:25.994Z,12.73
2018-01-13T15:44:55.522Z,6.20
2018-01-13T15:47:25.291Z,16.97
2018-01-13T15:49:54.834Z,12.20
2018-01-13T15:52:25.388Z,10.20
2018-01-13T15:54:55.303Z,7.23
2018-01-13T15:57:25.157Z,11.67
2018-01-13T15:59:57.101Z,23.57
2018-01-13T16:02:26.814Z,8.40
2018-01-13T16:04:57.364Z,6.43
2018-01-13T16:07:27.005Z,9.23
2018-01-13T16:09:56.625Z,8.73
2018-01-13T16:12:26.209Z,10.03
2018-01-13T16:14:56.057Z,11.23
2018-01-13T16:17:26.097Z,10.30
2018-01-13T16:20:00.317Z,21.23
2018-01-13T16:22:30.021Z,6.10
2018-01-13T16:25:00.855Z,8.33
2018-01-13T16:27:30.496Z,9.53
2018-01-13T16:30:00.342Z,10.13
2018-01-13T16:32:29.914Z,14.70
2018-01-13T16:35:00.065Z,5.97
2018-01-13T16:37:30.594Z,11.60
2018-01-13T16:40:00.940Z,15.57
2018-01-13T16:42:30.533Z,11.13
2018-01-13T16:45:00.126Z,7.00
2018-01-13T16:47:42.721Z,6.90
2018-01-13T16:50:12.332Z,9.47
2018-01-13T16:52:42.042Z,12.20
2018-01-13T16:55:12.073Z,15.90
2018-01-13T16:57:48.379Z,13.93
2018-01-13T17:00:18.034Z,16.27
2018-01-13T17:02:47.672Z,14.47
2018-01-13T17:05:18.255Z,10.43
2018-01-13T17:07:49.695Z,10.60
2018-01-13T17:10:19.345Z,8.27
2018-01-13T17:12:49.067Z,17.57
2018-01-13T17:15:19.832Z,10.83
2018-01-13T17:17:49.421Z,20.07
2018-01-13T17:20:19.148Z,15.83
2018-01-13T17:22:48.687Z,29.90
2018-01-13T17:25:18.358Z,10.03
2018-01-13T17:27:47.910Z,10.17
2018-01-13T17:30:17.622Z,8.73
2018-01-13T17:32:47.564Z,10.17
2018-01-13T17:35:17.391Z,17.03
2018-01-13T17:37:47.418Z,20.40
2018-01-13T17:40:35.772Z,21.47
2018-01-13T17:43:17.390Z,18.93
2018-01-13T17:45:46.940Z,15.10
2018-01-13T17:48:16.503Z,18.03
2018-01-13T17:50:52.997Z,14.30
2018-01-13T17:53:29.244Z,16.83
2018-01-13T17:55:59.107Z,18.10
2018-01-13T17:58:29.449Z,16.67
2018-01-13T18:00:59.279Z,15.00
2018-01-13T18:03:28.880Z,10.30
2018-01-13T18:05:58.448Z,9.87
2018-01-13T18:08:28.030Z,12.87
2018-01-13T18:10:58.048Z,16.50
2018-01-13T18:13:27.633Z,7.10
2018-01-13T18:15:58.101Z,12.37
2018-01-13T18:18:28.114Z,9.60
2018-01-13T18:20:57.610Z,5.93
2018-01-13T18:23:27.465Z,13.83
2018-01-13T18:25:56.990Z,6.00
2018-01-13T18:28:33.097Z,3.80
2018-01-13T18:31:07.585Z,9.07
2018-01-13T18:33:37.604Z,3.37
2018-01-13T18:36:07.105Z,11.30
2018-01-13T18:38:37.297Z,6.60
2018-01-13T18:41:06.914Z,6.07
2018-01-13T18:43:36.418Z,6.87
2018-01-13T18:46:05.981Z,6.93
2018-01-13T18:48:35.540Z,7.60
2018-01-13T18:51:05.618Z,8.87
2018-01-13T18:53:35.358Z,4.60
2018-01-13T18:56:04.961Z,4.00
2018-01-13T18:58:34.515Z,4.80
2018-01-13T19:01:04.154Z,15.13
2018-01-13T19:03:33.927Z,7.93
2018-01-13T19:06:03.519Z,10.73
2018-01-13T19:08:33.036Z,9.27
2018-01-13T19:11:02.593Z,12.77
2018-01-13T19:13:32.789Z,4.07
2018-01-13T19:16:02.807Z,5.37
2018-01-13T19:18:33.914Z,6.80
2018-01-13T19:21:08.484Z,8.97
2018-01-13T19:23:55.388Z,7.23
2018-01-13T19:26:28.864Z,13.23
2018-01-13T19:28:58.393Z,4.20
2018-01-13T19:31:28.176Z,12.73
2018-01-13T19:33:58.165Z,9.03
2018-01-13T19:36:27.666Z,5.07
2018-01-13T19:38:57.307Z,9.30
2018-01-13T19:41:27.172Z,8.47
2018-01-13T19:43:56.757Z,5.83
2018-01-13T19:46:26.292Z,6.57
2018-01-13T19:49:03.539Z,8.83
2018-01-13T19:51:33.313Z,11.33
2018-01-13T19:54:02.945Z,9.00
2018-01-13T19:56:33.363Z,4.10
2018-01-13T19:59:03.861Z,5.13
2018-01-13T20:01:33.563Z,4.43
2018-01-13T20:04:04.512Z,7.30
2018-01-13T20:06:34.746Z,10.20
2018-01-13T20:09:04.579Z,6.20
2018-01-13T20:11:34.399Z,3.00
2018-01-13T20:14:04.647Z,6.20
2018-01-13T20:16:34.228Z,8.37
2018-01-13T20:19:10.269Z,6.67
2018-01-13T20:21:40.752Z,7.57
2018-01-13T20:24:10.437Z,8.07
2018-01-13T20:26:40.666Z,3.30
2018-01-13T20:29:10.191Z,8.37
2018-01-13T20:31:39.750Z,14.50
2018-01-13T20:34:09.901Z,13.43
2018-01-13T20:36:45.662Z,18.07
2018-01-13T20:39:15.261Z,11.80
2018-01-13T20:41:51.026Z,7.83
2018-01-13T20:44:20.637Z,12.57
2018-01-13T20:46:50.654Z,14.30
2018-01-13T20:49:20.498Z,12.57
2018-01-13T20:51:50.449Z,16.60
2018-01-13T20:54:20.202Z,15.43
2018-01-13T20:56:49.840Z,25.00
2018-01-13T20:59:19.450Z,37.73
2018-01-13T21:01:49.053Z,31.50
2018-01-13T21:04:18.640Z,35.20
2018-01-13T21:06:48.324Z,30.30
2018-01-13T21:09:17.922Z,22.43
2018-01-13T21:11:48.105Z,20.90
2018-01-13T21:14:17.757Z,20.73
2018-01-13T21:16:47.275Z,16.53
2018-01-13T21:19:17.725Z,18.70
2018-01-13T21:21:47.238Z,13.73
2018-01-13T21:24:24.465Z,11.50
2018-01-13T21:26:54.034Z,9.40
2018-01-13T21:29:23.663Z,13.93
2018-01-13T21:31:53.281Z,15.23
2018-01-13T21:34:23.080Z,22.80
2018-01-13T21:36:52.766Z,33.80
2018-01-13T21:39:22.530Z,25.43
2018-01-13T21:41:52.400Z,15.63
2018-01-13T21:44:22.171Z,12.93
2018-01-13T21:46:53.003Z,20.53
2018-01-13T21:49:22.574Z,11.40
2018-01-13T21:51:52.306Z,14.00
2018-01-13T21:54:21.800Z,29.27
2018-01-13T21:56:51.389Z,21.80
2018-01-13T21:59:21.017Z,17.70
2018-01-13T22:01:58.221Z,13.53
2018-01-13T22:04:28.038Z,23.83
2018-01-13T22:06:57.599Z,17.40
2018-01-13T22:09:27.139Z,25.50
2018-01-13T22:12:02.660Z,11.27
2018-01-13T22:14:32.223Z,33.13
2018-01-13T22:17:01.870Z,17.53
2018-01-13T22:19:31.384Z,17.47
2018-01-13T22:22:00.883Z,17.83
2018-01-13T22:24:30.429Z,27.10
2018-01-13T22:26:59.947Z,17.13
2018-01-13T22:29:29.548Z,18.10
2018-01-13T22:31:59.193Z,29.43
2018-01-13T22:34:28.761Z,4.83
2018-01-13T22:36:58.271Z,9.13
2018-01-13T22:39:41.143Z,46.30
2018-01-13T22:42:10.761Z,47.77
2018-01-13T22:44:40.480Z,65.07
2018-01-13T22:47:10.018Z,39.83
2018-01-13T22:49:39.534Z,36.73
2018-01-13T22:52:09.263Z,30.60
2018-01-13T22:54:38.869Z,17.60
2018-01-13T22:57:08.451Z,16.00
2018-01-13T22:59:38.029Z,23.70
2018-01-13T23:02:07.598Z,33.43
2018-01-13T23:04:37.135Z,32.70
2018-01-13T23:07:06.685Z,17.50
2018-01-13T23:09:39.026Z,26.30
2018-01-13T23:12:09.293Z,16.73
2018-01-13T23:14:40.437Z,7.07
2018-01-13T23:17:09.950Z,9.30
2018-01-13T23:19:39.449Z,11.33
2018-01-13T23:22:09.009Z,14.43
2018-01-13T23:24:38.517Z,11.27
2018-01-13T23:27:17.569Z,8.37
2018-01-13T23:29:47.261Z,12.40
2018-01-13T23:32:16.790Z,13.67
2018-01-13T23:34:55.562Z,9.90
2018-01-13T23:37:25.110Z,8.17
2018-01-13T23:39:54.939Z,5.30
2018-01-13T23:42:24.488Z,4.90
2018-01-13T23:44:54.019Z,8.03
2018-01-13T23:47:36.711Z,2.67
2018-01-13T23:50:06.215Z,7.93
2018-01-13T23:52:35.802Z,4.73
2018-01-13T23:55:05.368Z,3.47
2018-01-13T23:57:35.022Z,12.03
